sensor_id;sensor_type;location;lat;lon;timestamp;pressure;altitude;pressure_sealevel;temperature;humidity
51229;BME280;37304;52.216;6.874;2022-09-09T14:30:43;100431.56;;;23.26;76.93
51229;BME280;37304;52.216;6.874;2022-09-09T14:46:15;100420.50;;;23.67;72.84
51229;BME280;37304;52.216;6.874;2022-09-09T14:56:50;100418.38;;;24.93;85.78
51229;BME280;37304;52.216;6.874;2022-09-09T15:09:32;100413.56;;;25.60;64.59
51229;BME280;37304;52.216;6.874;2022-09-09T15:13:39;100401.06;;;24.77;69.21
51229;BME280;37304;52.216;6.874;2022-09-09T15:14:39;100403.31;;;24.82;68.15
51229;BME280;37304;52.216;6.874;2022-09-09T15:28:54;100425.19;;;20.79;85.84
51229;BME280;37304;52.216;6.874;2022-09-09T15:33:56;100423.41;;;20.11;90.96
51229;BME280;37304;52.216;6.874;2022-09-09T15:39:05;100416.69;;;19.63;94.71
51229;BME280;37304;52.216;6.874;2022-09-09T15:44:07;100414.97;;;19.33;98.71
51229;BME280;37304;52.216;6.874;2022-09-09T15:49:13;100411.63;;;19.15;100.00
51229;BME280;37304;52.216;6.874;2022-09-09T15:54:16;100413.56;;;18.97;100.00
51229;BME280;37304;52.216;6.874;2022-09-09T15:59:18;100409.94;;;18.83;100.00
51229;BME280;37304;52.216;6.874;2022-09-09T16:04:19;100425.72;;;18.83;100.00
51229;BME280;37304;52.216;6.874;2022-09-09T16:09:23;100440.25;;;18.44;100.00
51229;BME280;37304;52.216;6.874;2022-09-09T16:14:24;100453.94;;;17.85;100.00
51229;BME280;37304;52.216;6.874;2022-09-09T16:19:25;100461.13;;;17.81;100.00
51229;BME280;37304;52.216;6.874;2022-09-09T16:24:25;100466.59;;;17.60;100.00
51229;BME280;37304;52.216;6.874;2022-09-09T16:29:26;100457.81;;;17.44;100.00
51229;BME280;37304;52.216;6.874;2022-09-09T16:34:27;100463.44;;;17.36;100.00
51229;BME280;37304;52.216;6.874;2022-09-09T16:39:27;100456.66;;;17.32;100.00
51229;BME280;37304;52.216;6.874;2022-09-09T16:44:27;100469.56;;;17.37;100.00
51229;BME280;37304;52.216;6.874;2022-09-09T16:49:28;100465.22;;;17.18;100.00
51229;BME280;37304;52.216;6.874;2022-09-09T16:54:28;100474.44;;;17.09;100.00
51229;BME280;37304;52.216;6.874;2022-09-09T16:59:29;100478.91;;;17.07;100.00
51229;BME280;37304;52.216;6.874;2022-09-09T17:04:31;100497.34;;;17.06;100.00
51229;BME280;37304;52.216;6.874;2022-09-09T17:09:32;100484.84;;;16.74;100.00
51229;BME280;37304;52.216;6.874;2022-09-09T17:14:33;100480.06;;;16.65;100.00
51229;BME280;37304;52.216;6.874;2022-09-09T17:19:33;100493.03;;;16.49;100.00
51229;BME280;37304;52.216;6.874;2022-09-09T17:24:34;100491.72;;;16.40;100.00
51229;BME280;37304;52.216;6.874;2022-09-09T17:29:34;100490.59;;;16.26;100.00
51229;BME280;37304;52.216;6.874;2022-09-09T17:34:35;100505.75;;;16.20;100.00
51229;BME280;37304;52.216;6.874;2022-09-09T17:39:36;100496.47;;;16.12;100.00
51229;BME280;37304;52.216;6.874;2022-09-09T17:44:36;100512.47;;;16.06;100.00
51229;BME280;37304;52.216;6.874;2022-09-09T17:49:36;100514.13;;;15.88;100.00
51229;BME280;37304;52.216;6.874;2022-09-09T17:54:38;100521.72;;;15.73;100.00
51229;BME280;37304;52.216;6.874;2022-09-09T17:59:38;100530.50;;;15.72;100.00
51229;BME280;37304;52.216;6.874;2022-09-09T18:04:38;100526.22;;;15.70;100.00
51229;BME280;37304;52.216;6.874;2022-09-09T18:09:39;100537.44;;;15.73;100.00
51229;BME280;37304;52.216;6.874;2022-09-09T18:14:39;100544.50;;;15.71;100.00
51229;BME280;37304;52.216;6.874;2022-09-09T18:19:40;100556.75;;;15.71;100.00
51229;BME280;37304;52.216;6.874;2022-09-09T18:24:40;100568.00;;;15.73;100.00
51229;BME280;37304;52.216;6.874;2022-09-09T18:29:40;100570.97;;;15.65;100.00
51229;BME280;37304;52.216;6.874;2022-09-09T18:34:41;100582.81;;;15.53;100.00
51229;BME280;37304;52.216;6.874;2022-09-09T18:39:41;100586.66;;;15.44;100.00
51229;BME280;37304;52.216;6.874;2022-09-09T18:44:41;100583.63;;;15.33;100.00
51229;BME280;37304;52.216;6.874;2022-09-09T18:49:42;100584.91;;;15.23;100.00
51229;BME280;37304;52.216;6.874;2022-09-09T18:54:42;100598.38;;;15.13;100.00
51229;BME280;37304;52.216;6.874;2022-09-09T18:59:45;100606.41;;;15.09;100.00
51229;BME280;37304;52.216;6.874;2022-09-09T19:04:45;100599.22;;;14.92;100.00
51229;BME280;37304;52.216;6.874;2022-09-09T19:09:45;100603.63;;;14.90;100.00
51229;BME280;37304;52.216;6.874;2022-09-09T19:14:46;100600.78;;;14.74;100.00
51229;BME280;37304;52.216;6.874;2022-09-09T19:19:48;100599.88;;;14.75;100.00
51229;BME280;37304;52.216;6.874;2022-09-09T19:24:50;100601.81;;;14.68;100.00
51229;BME280;37304;52.216;6.874;2022-09-09T19:29:50;100603.66;;;14.66;100.00
51229;BME280;37304;52.216;6.874;2022-09-09T19:34:51;100609.09;;;14.60;100.00
51229;BME280;37304;52.216;6.874;2022-09-09T19:39:51;100613.53;;;14.57;100.00
51229;BME280;37304;52.216;6.874;2022-09-09T19:44:52;100611.16;;;14.51;100.00
51229;BME280;37304;52.216;6.874;2022-09-09T19:49:52;100611.19;;;14.50;100.00
51229;BME280;37304;52.216;6.874;2022-09-09T19:54:52;100613.94;;;14.47;100.00
51229;BME280;37304;52.216;6.874;2022-09-09T19:59:54;100635.03;;;14.42;100.00
51229;BME280;37304;52.216;6.874;2022-09-09T20:04:54;100628.03;;;14.42;100.00
51229;BME280;37304;52.216;6.874;2022-09-09T20:09:55;100624.69;;;14.39;100.00
51229;BME280;37304;52.216;6.874;2022-09-09T20:14:55;100627.44;;;14.34;100.00
51229;BME280;37304;52.216;6.874;2022-09-09T20:19:55;100637.19;;;14.31;100.00
51229;BME280;37304;52.216;6.874;2022-09-09T20:24:56;100625.97;;;14.27;100.00
51229;BME280;37304;52.216;6.874;2022-09-09T20:29:56;100627.00;;;14.23;100.00
51229;BME280;37304;52.216;6.874;2022-09-09T20:34:57;100629.63;;;14.21;100.00
51229;BME280;37304;52.216;6.874;2022-09-09T20:39:57;100639.38;;;14.18;100.00
51229;BME280;37304;52.216;6.874;2022-09-09T20:45:00;100640.19;;;14.18;100.00
51229;BME280;37304;52.216;6.874;2022-09-09T20:50:00;100641.97;;;14.18;100.00
51229;BME280;37304;52.216;6.874;2022-09-09T20:55:00;100645.53;;;14.15;100.00
51229;BME280;37304;52.216;6.874;2022-09-09T21:00:03;100629.06;;;14.13;100.00
51229;BME280;37304;52.216;6.874;2022-09-09T21:05:04;100633.56;;;14.09;100.00
51229;BME280;37304;52.216;6.874;2022-09-09T21:10:06;100631.75;;;14.11;100.00
51229;BME280;37304;52.216;6.874;2022-09-09T21:15:10;100631.78;;;14.10;100.00
51229;BME280;37304;52.216;6.874;2022-09-09T21:20:10;100631.88;;;14.07;100.00
51229;BME280;37304;52.216;6.874;2022-09-09T21:25:10;100634.56;;;14.05;100.00
51229;BME280;37304;52.216;6.874;2022-09-09T21:30:11;100632.88;;;14.04;100.00
51229;BME280;37304;52.216;6.874;2022-09-09T21:35:12;100633.00;;;14.00;100.00
51229;BME280;37304;52.216;6.874;2022-09-09T21:40:12;100629.56;;;13.99;100.00
51229;BME280;37304;52.216;6.874;2022-09-09T21:45:13;100627.97;;;13.95;100.00
51229;BME280;37304;52.216;6.874;2022-09-09T21:50:14;100637.66;;;13.91;100.00
51229;BME280;37304;52.216;6.874;2022-09-09T21:55:15;100639.47;;;13.89;100.00
51229;BME280;37304;52.216;6.874;2022-09-09T22:00:15;100640.41;;;13.87;100.00
51229;BME280;37304;52.216;6.874;2022-09-09T22:05:17;100644.81;;;13.84;100.00
51229;BME280;37304;52.216;6.874;2022-09-09T22:10:18;100647.50;;;13.83;100.00
51229;BME280;37304;52.216;6.874;2022-09-09T22:15:20;100642.06;;;13.89;100.00
51229;BME280;37304;52.216;6.874;2022-09-09T22:20:20;100640.13;;;13.96;100.00
51229;BME280;37304;52.216;6.874;2022-09-09T22:25:20;100635.53;;;14.03;100.00
51229;BME280;37304;52.216;6.874;2022-09-09T22:30:21;100635.59;;;14.01;100.00
51229;BME280;37304;52.216;6.874;2022-09-09T22:35:21;100632.22;;;13.97;100.00
51229;BME280;37304;52.216;6.874;2022-09-09T22:40:21;100634.81;;;13.97;100.00
51229;BME280;37304;52.216;6.874;2022-09-09T22:45:22;100633.13;;;13.96;100.00
51229;BME280;37304;52.216;6.874;2022-09-09T22:50:22;100634.13;;;13.92;100.00
51229;BME280;37304;52.216;6.874;2022-09-09T22:55:23;100640.25;;;13.91;100.00
51229;BME280;37304;52.216;6.874;2022-09-09T23:00:24;100642.19;;;13.86;100.00
51229;BME280;37304;52.216;6.874;2022-09-09T23:05:24;100643.09;;;13.85;100.00
51229;BME280;37304;52.216;6.874;2022-09-09T23:10:25;100650.84;;;13.87;100.00
51229;BME280;37304;52.216;6.874;2022-09-09T23:15:27;100649.31;;;13.81;100.00
51229;BME280;37304;52.216;6.874;2022-09-09T23:20:28;100653.78;;;13.77;100.00
51229;BME280;37304;52.216;6.874;2022-09-09T23:25:28;100658.06;;;13.80;100.00
51229;BME280;37304;52.216;6.874;2022-09-09T23:30:29;100661.38;;;13.85;100.00
51229;BME280;37304;52.216;6.874;2022-09-09T23:35:29;100666.53;;;13.87;100.00
51229;BME280;37304;52.216;6.874;2022-09-09T23:40:33;100660.47;;;13.86;100.00
51229;BME280;37304;52.216;6.874;2022-09-09T23:45:33;100659.59;;;13.86;100.00
51229;BME280;37304;52.216;6.874;2022-09-09T23:50:34;100664.88;;;13.84;100.00
51229;BME280;37304;52.216;6.874;2022-09-09T23:55:34;100655.44;;;13.80;100.00
